createdAt,value
2018-07-27T00:00:09.935Z,23.00
2018-07-27T00:02:38.110Z,23.00
2018-07-27T00:05:06.384Z,23.00
2018-07-27T00:07:34.526Z,22.90
2018-07-27T00:10:02.726Z,22.90
2018-07-27T00:12:30.893Z,22.90
2018-07-27T00:14:59.027Z,22.80
2018-07-27T00:17:27.163Z,22.80
2018-07-27T00:19:55.429Z,22.70
2018-07-27T00:22:23.551Z,22.70
2018-07-27T00:24:51.711Z,22.70
2018-07-27T00:27:19.839Z,22.60
2018-07-27T00:29:47.956Z,22.60
2018-07-27T00:32:16.078Z,22.60
2018-07-27T00:34:44.216Z,22.60
2018-07-27T00:37:12.328Z,22.60
2018-07-27T00:39:40.456Z,22.60
2018-07-27T00:42:08.615Z,22.50
2018-07-27T00:44:36.764Z,22.50
2018-07-27T00:47:05.028Z,22.50
2018-07-27T00:49:33.153Z,22.40
2018-07-27T00:52:01.284Z,22.40
2018-07-27T00:54:29.435Z,22.40
2018-07-27T00:56:57.606Z,22.30
2018-07-27T00:59:25.859Z,22.30
2018-07-27T01:01:54.089Z,22.30
2018-07-27T01:04:22.337Z,22.20
2018-07-27T01:06:50.545Z,22.20
2018-07-27T01:09:18.751Z,22.20
2018-07-27T01:11:46.954Z,22.20
2018-07-27T01:14:15.068Z,22.10
2018-07-27T01:16:43.204Z,22.10
2018-07-27T01:19:11.356Z,22.10
2018-07-27T01:21:40.274Z,22.00
2018-07-27T01:24:08.445Z,22.00
2018-07-27T01:26:36.664Z,21.90
2018-07-27T01:29:04.803Z,21.90
2018-07-27T01:31:32.919Z,21.90
2018-07-27T01:34:01.062Z,21.90
2018-07-27T01:36:29.160Z,21.90
2018-07-27T01:38:57.326Z,21.90
2018-07-27T01:41:25.559Z,21.90
2018-07-27T01:43:53.777Z,21.90
2018-07-27T01:46:21.968Z,21.90
2018-07-27T01:48:50.131Z,21.90
2018-07-27T01:51:18.339Z,21.90
2018-07-27T01:53:46.496Z,21.80
2018-07-27T01:56:14.724Z,21.80
2018-07-27T01:58:42.912Z,21.80
2018-07-27T02:01:11.136Z,21.70
2018-07-27T02:03:39.297Z,21.70
2018-07-27T02:06:07.498Z,21.70
2018-07-27T02:08:35.686Z,21.70
2018-07-27T02:11:03.950Z,21.60
2018-07-27T02:13:32.205Z,21.60
2018-07-27T02:16:01.136Z,21.60
2018-07-27T02:18:30.875Z,21.60
2018-07-27T02:20:59.964Z,21.50
2018-07-27T02:23:28.297Z,21.50
2018-07-27T02:25:56.520Z,21.50
2018-07-27T02:28:24.723Z,21.50
2018-07-27T02:30:52.974Z,21.50
2018-07-27T02:33:21.146Z,21.50
2018-07-27T02:38:17.289Z,21.40
2018-07-27T02:40:45.486Z,21.40
2018-07-27T02:43:13.690Z,21.40
2018-07-27T02:45:41.934Z,21.40
2018-07-27T02:48:10.152Z,21.40
2018-07-27T02:50:38.457Z,21.40
2018-07-27T02:53:06.653Z,21.30
2018-07-27T02:55:34.905Z,21.30
2018-07-27T02:58:03.128Z,21.30
2018-07-27T03:00:31.304Z,21.20
2018-07-27T03:02:59.547Z,21.20
2018-07-27T03:05:27.776Z,21.10
2018-07-27T03:07:55.992Z,21.10
2018-07-27T03:10:24.228Z,21.10
2018-07-27T03:12:52.416Z,21.00
2018-07-27T03:15:20.570Z,21.00
2018-07-27T03:17:48.712Z,21.00
2018-07-27T03:20:16.919Z,20.90
2018-07-27T03:22:45.105Z,20.90
2018-07-27T03:25:13.304Z,20.80
2018-07-27T03:27:41.523Z,20.80
2018-07-27T03:30:09.646Z,20.80
2018-07-27T03:32:37.862Z,20.80
2018-07-27T03:35:06.103Z,20.70
2018-07-27T03:40:02.377Z,20.70
2018-07-27T03:42:30.510Z,20.70
2018-07-27T03:44:58.643Z,20.60
2018-07-27T03:47:26.815Z,20.60
2018-07-27T03:49:54.947Z,20.60
2018-07-27T03:52:23.381Z,20.60
2018-07-27T03:54:52.110Z,20.50
2018-07-27T03:57:20.634Z,20.60
2018-07-27T03:59:48.905Z,20.50
2018-07-27T04:02:17.356Z,20.50
2018-07-27T04:04:45.488Z,20.50
2018-07-27T04:07:13.754Z,20.50
2018-07-27T04:09:41.955Z,20.50
2018-07-27T04:12:10.132Z,20.50
2018-07-27T04:14:38.280Z,20.40
2018-07-27T04:17:06.396Z,20.40
2018-07-27T04:19:34.559Z,20.40
2018-07-27T04:22:03.255Z,20.50
2018-07-27T04:24:31.412Z,20.50
2018-07-27T04:26:59.545Z,20.50
2018-07-27T04:29:27.667Z,20.50
2018-07-27T04:31:55.824Z,20.60
2018-07-27T04:34:24.054Z,20.60
2018-07-27T04:36:52.189Z,20.60
2018-07-27T04:41:48.352Z,20.70
2018-07-27T04:44:16.648Z,20.70
2018-07-27T04:46:44.845Z,20.70
2018-07-27T04:49:13.043Z,20.80
2018-07-27T04:51:41.694Z,20.80
2018-07-27T04:54:10.012Z,20.90
2018-07-27T04:56:38.238Z,20.90
2018-07-27T04:59:06.468Z,21.00
2018-07-27T05:01:34.773Z,21.00
2018-07-27T05:04:04.060Z,21.00
2018-07-27T05:06:32.333Z,21.00
2018-07-27T05:09:06.027Z,21.00
2018-07-27T05:11:34.269Z,21.00
2018-07-27T05:14:02.458Z,21.00
2018-07-27T05:16:30.581Z,21.00
2018-07-27T05:18:58.740Z,21.10
2018-07-27T05:21:26.875Z,21.20
2018-07-27T05:23:55.046Z,21.30
2018-07-27T05:26:23.253Z,21.40
2018-07-27T05:28:51.506Z,21.50
2018-07-27T05:31:19.767Z,21.60
2018-07-27T05:33:47.987Z,21.70
2018-07-27T05:36:16.139Z,21.70
2018-07-27T05:38:44.279Z,21.70
2018-07-27T05:41:12.491Z,21.80
2018-07-27T05:43:40.691Z,21.90
2018-07-27T05:46:08.816Z,21.90
2018-07-27T05:51:05.270Z,22.10
2018-07-27T05:53:33.463Z,22.10
2018-07-27T05:56:01.612Z,22.20
2018-07-27T05:58:30.168Z,22.30
2018-07-27T06:00:58.333Z,22.30
2018-07-27T06:03:26.487Z,22.40
2018-07-27T06:05:54.703Z,22.50
2018-07-27T06:08:22.835Z,22.60
2018-07-27T06:10:51.041Z,22.70
2018-07-27T06:13:19.223Z,22.80
2018-07-27T06:15:47.510Z,22.80
2018-07-27T06:18:15.704Z,22.90
2018-07-27T06:20:43.852Z,23.00
2018-07-27T06:23:12.017Z,23.00
2018-07-27T06:25:40.346Z,23.10
2018-07-27T06:28:08.518Z,23.10
2018-07-27T06:30:36.679Z,23.20
2018-07-27T06:33:05.014Z,23.20
2018-07-27T06:35:33.219Z,23.40
2018-07-27T06:38:01.456Z,23.40
2018-07-27T06:40:29.721Z,23.50
2018-07-27T06:42:57.909Z,23.50
2018-07-27T06:45:26.739Z,23.60
2018-07-27T06:47:54.908Z,23.60
2018-07-27T06:50:23.075Z,23.70
2018-07-27T06:52:51.372Z,23.80
2018-07-27T06:55:19.505Z,23.90
2018-07-27T06:57:47.674Z,24.00
2018-07-27T07:00:15.975Z,24.00
2018-07-27T07:02:44.142Z,24.10
2018-07-27T07:05:12.297Z,24.20
2018-07-27T07:07:40.439Z,24.30
2018-07-27T07:10:09.756Z,24.30
2018-07-27T07:12:37.968Z,24.30
2018-07-27T07:15:07.298Z,24.40
2018-07-27T07:17:35.473Z,24.60
2018-07-27T07:20:04.140Z,24.60
2018-07-27T07:22:32.385Z,24.70
2018-07-27T07:25:00.503Z,24.70
2018-07-27T07:27:28.621Z,24.70
2018-07-27T07:29:56.754Z,24.80
2018-07-27T07:32:24.891Z,24.90
2018-07-27T07:34:53.137Z,25.00
2018-07-27T07:37:21.390Z,25.10
2018-07-27T07:39:49.564Z,25.20
2018-07-27T07:42:17.904Z,25.20
2018-07-27T07:47:14.428Z,25.30
2018-07-27T07:49:42.614Z,25.40
2018-07-27T07:52:10.797Z,25.50
2018-07-27T07:54:39.060Z,25.60
2018-07-27T07:57:07.256Z,25.60
2018-07-27T07:59:35.537Z,25.60
2018-07-27T08:02:03.761Z,25.70
2018-07-27T08:04:31.999Z,25.80
2018-07-27T08:07:00.168Z,25.80
2018-07-27T08:09:28.458Z,25.80
2018-07-27T08:11:56.812Z,26.00
2018-07-27T08:14:25.064Z,26.10
2018-07-27T08:16:53.244Z,26.10
2018-07-27T08:19:21.644Z,26.10
2018-07-27T08:21:49.800Z,26.10
2018-07-27T08:24:18.040Z,26.20
2018-07-27T08:26:48.248Z,26.40
2018-07-27T08:29:17.598Z,26.40
2018-07-27T08:31:47.127Z,26.40
2018-07-27T08:34:15.936Z,26.50
2018-07-27T08:36:44.146Z,26.60
2018-07-27T08:39:14.032Z,26.60
2018-07-27T08:41:42.424Z,26.60
2018-07-27T08:44:11.655Z,26.70
2018-07-27T08:46:39.891Z,26.70
2018-07-27T08:49:08.321Z,26.80
2018-07-27T08:51:36.540Z,26.90
2018-07-27T08:54:04.688Z,26.90
2018-07-27T08:56:32.870Z,27.00
2018-07-27T08:59:01.053Z,27.10
2018-07-27T09:01:29.206Z,27.20
2018-07-27T09:03:57.459Z,27.20
2018-07-27T09:06:25.585Z,27.30
2018-07-27T09:08:53.869Z,27.40
2018-07-27T09:11:22.364Z,27.40
2018-07-27T09:13:50.867Z,27.50
2018-07-27T09:16:19.151Z,27.60
2018-07-27T09:18:51.400Z,27.70
2018-07-27T09:21:19.619Z,27.70
2018-07-27T09:23:47.752Z,27.70
2018-07-27T09:26:15.901Z,27.70
2018-07-27T09:28:49.902Z,27.70
2018-07-27T09:31:55.499Z,27.80
2018-07-27T09:34:23.651Z,27.80
2018-07-27T09:36:51.845Z,27.80
2018-07-27T09:39:20.088Z,27.90
2018-07-27T09:41:48.218Z,28.00
2018-07-27T09:44:16.362Z,28.00
2018-07-27T09:46:44.512Z,28.10
2018-07-27T09:49:12.623Z,28.00
2018-07-27T09:51:40.846Z,28.00
2018-07-27T09:54:09.000Z,28.10
2018-07-27T09:56:37.200Z,28.20
2018-07-27T09:59:06.438Z,28.20
2018-07-27T10:01:34.593Z,28.30
2018-07-27T10:04:02.788Z,28.40
2018-07-27T10:06:30.974Z,28.40
2018-07-27T10:08:59.112Z,28.50
2018-07-27T10:11:27.467Z,28.50
2018-07-27T10:13:55.719Z,28.60
2018-07-27T10:16:24.603Z,28.70
2018-07-27T10:18:52.833Z,28.80
2018-07-27T10:21:21.015Z,28.90
2018-07-27T10:23:49.298Z,28.90
2018-07-27T10:26:17.481Z,28.90
2018-07-27T10:28:45.673Z,29.00
2018-07-27T10:31:13.932Z,29.00
2018-07-27T10:33:42.198Z,29.10
2018-07-27T10:36:10.416Z,29.10
2018-07-27T10:38:38.677Z,29.20
2018-07-27T10:41:07.153Z,29.30
2018-07-27T10:43:35.380Z,29.30
2018-07-27T10:46:03.586Z,29.40
2018-07-27T10:48:31.848Z,29.40
2018-07-27T10:51:00.240Z,29.50
2018-07-27T10:53:28.501Z,29.60
2018-07-27T10:55:56.688Z,29.70
2018-07-27T10:58:24.954Z,29.80
2018-07-27T11:00:53.209Z,29.80
2018-07-27T11:03:21.311Z,29.90
2018-07-27T11:05:49.616Z,29.90
2018-07-27T11:08:21.431Z,29.90
2018-07-27T11:10:49.940Z,29.90
2018-07-27T11:13:18.192Z,30.00
2018-07-27T11:15:46.469Z,30.00
2018-07-27T11:18:14.699Z,30.10
2018-07-27T11:20:43.052Z,30.10
2018-07-27T11:23:11.213Z,30.20
2018-07-27T11:25:39.522Z,30.30
2018-07-27T11:28:07.723Z,30.20
2018-07-27T11:30:35.920Z,30.30
2018-07-27T11:33:04.212Z,30.30
2018-07-27T11:35:32.484Z,30.30
2018-07-27T11:38:00.732Z,30.30
2018-07-27T11:40:28.937Z,30.40
2018-07-27T11:45:25.254Z,30.40
2018-07-27T11:47:53.515Z,30.50
2018-07-27T11:50:21.705Z,30.50
2018-07-27T11:52:49.989Z,30.60
2018-07-27T11:55:19.461Z,30.80
2018-07-27T11:57:47.752Z,30.80
2018-07-27T12:00:16.155Z,30.80
2018-07-27T12:02:44.422Z,30.80
2018-07-27T12:05:12.641Z,30.80
2018-07-27T12:07:41.148Z,30.80
2018-07-27T12:10:09.307Z,30.90
2018-07-27T12:12:38.667Z,30.90
2018-07-27T12:15:07.170Z,31.00
2018-07-27T12:17:35.200Z,31.00
2018-07-27T12:20:03.452Z,31.10
2018-07-27T12:22:31.644Z,31.10
2018-07-27T12:24:59.821Z,31.20
2018-07-27T12:27:28.164Z,31.30
2018-07-27T12:29:56.348Z,31.30
2018-07-27T12:32:24.652Z,31.30
2018-07-27T12:34:53.197Z,31.40
2018-07-27T12:37:21.538Z,31.30
2018-07-27T12:39:49.793Z,31.30
2018-07-27T12:42:17.923Z,31.30
2018-07-27T12:44:46.073Z,31.30
2018-07-27T12:47:14.268Z,31.30
2018-07-27T12:49:42.405Z,31.30
2018-07-27T12:52:10.580Z,31.30
2018-07-27T12:54:38.710Z,31.30
2018-07-27T12:57:06.959Z,31.30
2018-07-27T12:59:35.215Z,31.30
2018-07-27T13:02:03.355Z,31.30
2018-07-27T13:04:32.439Z,31.30
2018-07-27T13:07:00.825Z,31.40
2018-07-27T13:09:28.972Z,31.50
2018-07-27T13:11:57.170Z,31.50
2018-07-27T13:14:25.321Z,31.60
2018-07-27T13:16:53.446Z,31.60
2018-07-27T13:19:21.563Z,31.70
2018-07-27T13:21:49.805Z,31.80
2018-07-27T13:24:17.924Z,31.90
2018-07-27T13:26:46.141Z,31.90
2018-07-27T13:29:14.258Z,31.90
2018-07-27T13:31:50.125Z,31.90
2018-07-27T13:34:38.841Z,32.00
2018-07-27T13:37:07.203Z,32.10
2018-07-27T13:39:36.021Z,32.20
2018-07-27T13:42:04.989Z,32.20
2018-07-27T13:44:34.229Z,32.30
2018-07-27T13:47:03.174Z,32.40
2018-07-27T13:49:31.391Z,32.40
2018-07-27T13:51:59.692Z,32.40
2018-07-27T13:54:28.763Z,32.40
2018-07-27T13:56:56.877Z,32.50
2018-07-27T13:59:25.364Z,32.50
2018-07-27T14:01:53.520Z,32.50
2018-07-27T14:04:21.712Z,32.40
2018-07-27T14:06:51.112Z,32.10
2018-07-27T14:09:19.269Z,32.00
2018-07-27T14:11:47.452Z,31.90
2018-07-27T14:14:15.870Z,31.70
2018-07-27T14:16:44.419Z,31.70
2018-07-27T14:19:13.351Z,31.70
2018-07-27T14:21:41.778Z,31.70
2018-07-27T14:24:09.931Z,31.80
2018-07-27T14:26:38.184Z,31.90
2018-07-27T14:29:06.436Z,32.00
2018-07-27T14:31:34.627Z,32.10
2018-07-27T14:34:02.772Z,32.10
2018-07-27T14:36:30.914Z,32.10
2018-07-27T14:38:59.116Z,31.90
2018-07-27T14:41:27.237Z,31.80
2018-07-27T14:43:55.495Z,31.60
2018-07-27T14:46:23.688Z,31.50
2018-07-27T14:48:51.888Z,31.40
2018-07-27T14:51:20.153Z,31.30
2018-07-27T14:53:48.276Z,31.20
2018-07-27T14:56:16.465Z,31.10
2018-07-27T14:58:44.639Z,31.10
2018-07-27T15:01:12.808Z,31.10
2018-07-27T15:03:41.037Z,31.10
2018-07-27T15:08:37.781Z,31.10
2018-07-27T15:11:10.584Z,31.10
2018-07-27T15:16:29.508Z,31.10
2018-07-27T15:18:57.715Z,31.10
2018-07-27T15:21:25.904Z,31.10
2018-07-27T15:23:54.106Z,31.10
2018-07-27T15:26:22.226Z,31.10
2018-07-27T15:28:50.435Z,31.10
2018-07-27T15:31:18.652Z,31.10
2018-07-27T15:33:46.880Z,31.10
2018-07-27T15:36:15.105Z,31.10
2018-07-27T15:38:43.268Z,31.10
2018-07-27T15:41:11.549Z,31.00
2018-07-27T15:43:39.869Z,30.90
2018-07-27T15:46:08.148Z,30.90
2018-07-27T15:48:36.443Z,30.90
2018-07-27T15:51:04.600Z,30.90
2018-07-27T15:53:32.805Z,30.90
2018-07-27T15:56:01.220Z,30.80
2018-07-27T15:58:29.376Z,30.80
2018-07-27T16:00:57.712Z,30.70
2018-07-27T16:03:26.869Z,30.70
2018-07-27T16:05:55.096Z,30.70
2018-07-27T16:08:23.317Z,30.60
2018-07-27T16:10:51.454Z,30.60
2018-07-27T16:13:19.676Z,30.70
2018-07-27T16:15:47.848Z,30.60
2018-07-27T16:18:16.160Z,30.50
2018-07-27T16:20:44.354Z,30.50
2018-07-27T16:23:12.573Z,30.40
2018-07-27T16:25:40.844Z,30.30
2018-07-27T16:28:09.043Z,30.30
2018-07-27T16:30:37.211Z,30.30
2018-07-27T16:33:05.540Z,30.30
2018-07-27T16:35:33.672Z,30.30
2018-07-27T16:38:01.824Z,30.30
2018-07-27T16:40:30.095Z,30.20
2018-07-27T16:42:58.344Z,30.20
2018-07-27T16:45:26.556Z,30.10
2018-07-27T16:47:54.870Z,30.10
2018-07-27T16:50:24.366Z,30.00
2018-07-27T16:52:52.579Z,30.00
2018-07-27T16:55:20.746Z,29.90
2018-07-27T16:57:49.009Z,29.80
2018-07-27T17:00:17.148Z,29.80
2018-07-27T17:02:45.327Z,29.80
2018-07-27T17:05:13.496Z,29.80
2018-07-27T17:07:41.691Z,29.70
2018-07-27T17:10:09.945Z,29.60
2018-07-27T17:12:38.172Z,29.60
2018-07-27T17:15:06.380Z,29.60
2018-07-27T17:17:34.671Z,29.60
2018-07-27T17:20:02.967Z,29.60
2018-07-27T17:22:31.139Z,29.60
2018-07-27T17:25:00.776Z,29.60
2018-07-27T17:27:28.958Z,29.40
2018-07-27T17:29:57.177Z,29.50
2018-07-27T17:32:25.364Z,29.40
2018-07-27T17:37:21.563Z,29.40
2018-07-27T17:39:49.909Z,29.40
2018-07-27T17:42:18.116Z,29.40
2018-07-27T17:44:46.432Z,29.30
2018-07-27T17:49:42.663Z,29.30
2018-07-27T17:52:10.916Z,29.20
2018-07-27T17:54:39.196Z,29.20
2018-07-27T17:57:07.519Z,29.10
2018-07-27T17:59:35.742Z,29.10
2018-07-27T18:02:03.994Z,29.10
2018-07-27T18:04:32.150Z,29.00
2018-07-27T18:07:00.395Z,28.90
2018-07-27T18:09:28.510Z,28.80
2018-07-27T18:11:56.710Z,28.80
2018-07-27T18:14:24.996Z,28.80
2018-07-27T18:16:53.691Z,28.80
2018-07-27T18:19:21.895Z,28.80
2018-07-27T18:21:50.112Z,28.70
2018-07-27T18:24:20.346Z,28.70
2018-07-27T18:26:48.559Z,28.70
2018-07-27T18:29:17.794Z,28.60
2018-07-27T18:31:46.001Z,28.50
2018-07-27T18:34:14.241Z,28.50
2018-07-27T18:36:42.380Z,28.40
2018-07-27T18:39:12.036Z,28.40
2018-07-27T18:41:40.187Z,28.30
2018-07-27T18:44:08.645Z,28.30
2018-07-27T18:46:37.412Z,28.20
2018-07-27T18:49:05.646Z,28.20
2018-07-27T18:51:35.846Z,28.10
2018-07-27T18:54:04.315Z,28.10
2018-07-27T18:56:32.617Z,28.00
2018-07-27T18:59:00.840Z,28.00
2018-07-27T19:01:29.200Z,27.90
2018-07-27T19:03:57.479Z,27.90
2018-07-27T19:06:25.729Z,27.90
2018-07-27T19:08:53.992Z,27.80
2018-07-27T19:11:22.169Z,27.80
2018-07-27T19:13:50.396Z,27.70
2018-07-27T19:16:18.902Z,27.70
2018-07-27T19:18:47.266Z,27.60
2018-07-27T19:21:15.476Z,27.60
2018-07-27T19:23:43.673Z,27.60
2018-07-27T19:26:11.889Z,27.50
2018-07-27T19:28:40.165Z,27.50
2018-07-27T19:31:08.778Z,27.40
2018-07-27T19:33:36.871Z,27.40
2018-07-27T19:36:05.036Z,27.40
2018-07-27T19:38:33.228Z,27.30
2018-07-27T19:41:01.398Z,27.30
2018-07-27T19:43:29.634Z,27.30
2018-07-27T19:45:57.878Z,27.30
2018-07-27T19:48:26.546Z,27.20
2018-07-27T19:50:56.904Z,27.10
2018-07-27T19:53:25.924Z,27.10
2018-07-27T19:55:54.101Z,27.10
2018-07-27T19:58:22.216Z,27.10
2018-07-27T20:00:50.360Z,27.00
2018-07-27T20:03:18.497Z,27.00
2018-07-27T20:05:46.648Z,26.90
2018-07-27T20:08:14.844Z,26.80
2018-07-27T20:10:43.088Z,26.80
2018-07-27T20:13:11.510Z,26.70
2018-07-27T20:15:39.719Z,26.70
2018-07-27T20:18:07.936Z,26.60
2018-07-27T20:20:36.282Z,26.60
2018-07-27T20:23:04.496Z,26.60
2018-07-27T20:25:32.713Z,26.50
2018-07-27T20:28:02.180Z,26.40
2018-07-27T20:30:30.357Z,26.50
2018-07-27T20:32:58.475Z,26.50
2018-07-27T20:35:26.600Z,26.40
2018-07-27T20:37:54.807Z,26.40
2018-07-27T20:40:35.439Z,26.30
2018-07-27T20:43:05.574Z,26.20
2018-07-27T20:45:35.041Z,26.20
2018-07-27T20:48:03.911Z,26.20
2018-07-27T20:50:36.072Z,26.20
2018-07-27T20:53:06.412Z,26.10
2018-07-27T20:55:40.172Z,26.00
2018-07-27T20:58:08.706Z,25.90
2018-07-27T21:00:36.828Z,25.90
2018-07-27T21:03:05.173Z,25.90
2018-07-27T21:05:33.350Z,25.90
2018-07-27T21:08:01.537Z,25.80
2018-07-27T21:10:29.677Z,25.80
2018-07-27T21:12:57.931Z,25.80
2018-07-27T21:15:26.259Z,25.70
2018-07-27T21:17:54.471Z,25.70
2018-07-27T21:20:23.281Z,25.60
2018-07-27T21:22:51.594Z,25.50
2018-07-27T21:25:19.886Z,25.50
2018-07-27T21:27:48.247Z,25.40
2018-07-27T21:30:17.497Z,25.40
2018-07-27T21:32:45.669Z,25.40
2018-07-27T21:35:13.871Z,25.30
2018-07-27T21:37:47.092Z,25.30
2018-07-27T21:40:36.354Z,25.30
2018-07-27T21:43:05.081Z,25.30
2018-07-27T21:45:34.218Z,25.20
2018-07-27T21:48:02.586Z,25.10
2018-07-27T21:50:30.864Z,25.10
2018-07-27T21:52:59.162Z,25.10
2018-07-27T21:55:27.385Z,25.10
2018-07-27T21:57:55.619Z,25.00
2018-07-27T22:00:23.995Z,25.00
2018-07-27T22:02:52.203Z,24.90
2018-07-27T22:05:20.416Z,24.80
2018-07-27T22:07:52.885Z,24.80
2018-07-27T22:10:21.339Z,24.80
2018-07-27T22:12:49.552Z,24.70
2018-07-27T22:15:21.986Z,24.70
2018-07-27T22:17:50.471Z,24.70
2018-07-27T22:20:19.046Z,24.60
2018-07-27T22:22:47.932Z,24.60
2018-07-27T22:25:16.199Z,24.60
2018-07-27T22:27:45.113Z,24.50
2018-07-27T22:30:13.543Z,24.50
2018-07-27T22:32:41.715Z,24.50
2018-07-27T22:35:09.887Z,24.40
2018-07-27T22:37:39.282Z,24.40
2018-07-27T22:40:08.651Z,24.40
2018-07-27T22:42:36.854Z,24.30
2018-07-27T22:45:05.963Z,24.30
2018-07-27T22:47:34.203Z,24.20
2018-07-27T22:50:02.376Z,24.20
2018-07-27T22:52:34.771Z,24.20
2018-07-27T22:55:02.996Z,24.20
2018-07-27T22:57:31.210Z,24.20
2018-07-27T22:59:59.384Z,24.10
2018-07-27T23:02:27.555Z,24.10
2018-07-27T23:04:55.751Z,24.00
2018-07-27T23:07:23.980Z,24.00
2018-07-27T23:09:52.194Z,24.00
2018-07-27T23:12:20.375Z,23.90
2018-07-27T23:14:48.628Z,23.90
2018-07-27T23:17:16.831Z,23.80
2018-07-27T23:19:44.980Z,23.80
2018-07-27T23:22:13.251Z,23.80
2018-07-27T23:24:41.349Z,23.70
2018-07-27T23:27:09.509Z,23.70
2018-07-27T23:29:37.681Z,23.60
2018-07-27T23:32:05.863Z,23.60
2018-07-27T23:34:34.123Z,23.60
2018-07-27T23:37:02.368Z,23.60
2018-07-27T23:39:30.696Z,23.50
2018-07-27T23:41:58.912Z,23.50
2018-07-27T23:44:27.082Z,23.50
2018-07-27T23:46:55.218Z,23.50
2018-07-27T23:49:23.376Z,23.50
2018-07-27T23:51:51.537Z,23.40
2018-07-27T23:54:19.716Z,23.40
2018-07-27T23:56:47.892Z,23.30
2018-07-27T23:59:16.040Z,23.30
